KMFV/MFV METAR and TAF weather

Enter ICAO airport designator
Station Type Date Time Source
KMFV METAR 2019/08/22 04:35 UTC NOAA

KMFV 220435Z AUTO 21007KT 10SM -RA OVC110 27/23 A2994 RMK AO2 T02700231


Station Type Date Time Source
KMFV Decoded METAR 2019/08/22 04:35 UTC NOAA

Station name not available
Aug 22, 2019 - 12:35 AM EDT / 2019.08.22 0435 UTC
Wind: from the SSW (210 degrees) at 8 MPH (7 KT):0
Visibility: 10 mile(s):0
Sky conditions: overcast
Weather: light rain
Temperature: 80.6 F (27.0 C)
Dew Point: 73.6 F (23.1 C)
Relative Humidity: 79%
Pressure (altimeter): 29.94 in. Hg (1013 hPa)
ob: KMFV 220435Z AUTO 21007KT 10SM -RA OVC110 27/23 A2994 RMK AO2 T02700231
cycle: 4

Station Type Date Time Source
KMFV TAF UTC NOAA

Error!

Example: see airport list